Boston, MA (02128)

4:51 AM EST on December 26, 2014 (GMT -0500)
Winthrop Beach | Change Station
CLOSE
Current Station
Personal Weather Station
Location: Winthrop, MA
Elevation: 15 ft
Nearby Weather Stations

Elev 15 ft 42.38 °N, 70.97 °W | Updated 10 minutes ago

Clear
Clear
40.5 °F
Feels Like 40 °F
N
1.0
Wind Variable Wind from West
Gusts 11.0 mph

Today
High -- | Low -- °F
--% Chance of Precip.
Yesterday
High -- | Low -- °F
Precip. -- in
7:12 AM 4:17 PM
Waxing Crescent, 24% visible
Pressure 30.05 in
Visibility 10.0 miles
Clouds Clear
Windchill 40 °F
Dew Point 32 °F
Humidity 71%
Rainfall 0.00 in
Snow Depth Not available.
UV 0.0 out of 12
Pollen .10 out of 12
Air Quality Not available.
Flu Activity Not available.
METAR KBOS 260854Z 23008KT 10SM CLR 04/M02 A3005 RMK AO2 SLP174 T00441017 51019

More Conditions Fewer Conditions

Pressure 30.05 in
Visibility 10.0 miles
Clouds Clear
Windchill 40 °F
Dew Point 32 °F
Humidity 71%
Rainfall 0.00 in
Snow Depth Not available.
UV 0.0 out of 12
Pollen .10 out of 12
Air Quality Not available.
Flu Activity Not available.
METAR KBOS 260854Z 23008KT 10SM CLR 04/M02 A3005 RMK AO2 SLP174 T00441017 51019

More Conditions Fewer Conditions

10-Day Weather Forecast

Almanac

Astronomy

Dec. 26, 2014 Rise Set
Actual Time
Civil Twilight
Nautical Twilight
Astronomical Twilight
Moon
Length of Visible Light
Length of Day
Tomorrow will be .
, % of the Moon is Illuminated

Today's Extremes

State Highs State Lows

Community

WunderPhotos

Upload Photos

1,780,568 photos uploaded!

WunderBlogs® & News

Nearby

Air Quality

  Air Quality AQ Index Pollutant
Not available.

Snow Depth

Station Depth Elevation

Earthquake Activity

City Distance Mag. Time & Date
Minimum magnitude displayed is 2.5.

Coastal Water Temperatures

Place Temperature

Nearby Weather Stations